sensor_id;sensor_type;location;lat;lon;timestamp;pressure;altitude;pressure_sealevel;temperature;humidity
46886;BME280;32622;48.202;11.326;2023-11-21T00:01:55;1014.16;;;7.51;36.96
46886;BME280;32622;48.202;11.326;2023-11-21T00:03:57;1014.17;;;7.07;37.48
46886;BME280;32622;48.202;11.326;2023-11-21T00:05:59;1013.98;;;7.93;36.91
46886;BME280;32622;48.202;11.326;2023-11-21T00:08:01;1014.14;;;7.02;37.38
46886;BME280;32622;48.202;11.326;2023-11-21T00:10:04;1014.22;;;6.68;38.39
46886;BME280;32622;48.202;11.326;2023-11-21T00:12:06;1014.28;;;6.23;38.93
46886;BME280;32622;48.202;11.326;2023-11-21T00:14:09;1014.33;;;5.79;39.38
46886;BME280;32622;48.202;11.326;2023-11-21T00:16:11;1014.14;;;6.49;38.69
46886;BME280;32622;48.202;11.326;2023-11-21T00:18:13;1014.05;;;6.70;39.28
46886;BME280;32622;48.202;11.326;2023-11-21T00:20:15;1013.98;;;6.71;38.91
46886;BME280;32622;48.202;11.326;2023-11-21T00:22:17;1013.96;;;6.50;38.82
46886;BME280;32622;48.202;11.326;2023-11-21T00:24:20;1013.98;;;6.28;38.52
46886;BME280;32622;48.202;11.326;2023-11-21T00:26:22;1013.96;;;6.20;38.89
46886;BME280;32622;48.202;11.326;2023-11-21T00:28:25;1013.77;;;6.80;38.20
46886;BME280;32622;48.202;11.326;2023-11-21T00:30:28;1013.66;;;6.71;38.09
46886;BME280;32622;48.202;11.326;2023-11-21T00:32:30;1013.55;;;6.78;37.94
46886;BME280;32622;48.202;11.326;2023-11-21T00:34:32;1013.75;;;6.08;38.20
46886;BME280;32622;48.202;11.326;2023-11-21T00:36:34;1013.86;;;5.86;39.39
46886;BME280;32622;48.202;11.326;2023-11-21T00:38:36;1013.78;;;6.13;40.00
46886;BME280;32622;48.202;11.326;2023-11-21T00:40:38;1013.65;;;6.46;39.09
46886;BME280;32622;48.202;11.326;2023-11-21T00:42:40;1013.90;;;5.57;39.26
46886;BME280;32622;48.202;11.326;2023-11-21T00:44:43;1013.69;;;6.57;39.03
46886;BME280;32622;48.202;11.326;2023-11-21T00:46:45;1013.70;;;6.48;38.43
46886;BME280;32622;48.202;11.326;2023-11-21T00:48:47;1013.55;;;6.96;38.19
46886;BME280;32622;48.202;11.326;2023-11-21T00:50:49;1013.79;;;5.99;38.31
46886;BME280;32622;48.202;11.326;2023-11-21T00:52:51;1013.66;;;6.58;37.91
46886;BME280;32622;48.202;11.326;2023-11-21T00:54:53;1013.65;;;6.64;38.13
46886;BME280;32622;48.202;11.326;2023-11-21T00:56:55;1013.67;;;6.76;37.85
46886;BME280;32622;48.202;11.326;2023-11-21T00:58:57;1013.58;;;7.10;37.53
46886;BME280;32622;48.202;11.326;2023-11-21T01:00:59;1013.55;;;7.42;37.29
46886;BME280;32622;48.202;11.326;2023-11-21T01:03:02;1013.52;;;7.40;37.03
46886;BME280;32622;48.202;11.326;2023-11-21T01:05:05;1013.53;;;7.37;36.63
46886;BME280;32622;48.202;11.326;2023-11-21T01:07:07;1013.55;;;7.16;37.13
46886;BME280;32622;48.202;11.326;2023-11-21T01:09:09;1013.50;;;7.45;36.80
46886;BME280;32622;48.202;11.326;2023-11-21T01:11:11;1013.58;;;7.25;37.03
46886;BME280;32622;48.202;11.326;2023-11-21T01:13:14;1013.73;;;6.80;37.10
46886;BME280;32622;48.202;11.326;2023-11-21T01:15:16;1013.66;;;7.21;37.12
46886;BME280;32622;48.202;11.326;2023-11-21T01:17:18;1013.65;;;7.26;36.84
46886;BME280;32622;48.202;11.326;2023-11-21T01:19:20;1013.69;;;7.12;37.32
46886;BME280;32622;48.202;11.326;2023-11-21T01:21:22;1013.73;;;6.83;37.19
46886;BME280;32622;48.202;11.326;2023-11-21T01:23:24;1013.73;;;6.75;37.51
46886;BME280;32622;48.202;11.326;2023-11-21T01:25:27;1013.62;;;7.27;37.10
46886;BME280;32622;48.202;11.326;2023-11-21T01:27:29;1013.52;;;7.91;36.79
46886;BME280;32622;48.202;11.326;2023-11-21T01:29:31;1013.54;;;7.82;36.30
46886;BME280;32622;48.202;11.326;2023-11-21T01:31:33;1013.55;;;7.82;36.34
46886;BME280;32622;48.202;11.326;2023-11-21T01:33:35;1013.59;;;7.56;36.33
46886;BME280;32622;48.202;11.326;2023-11-21T01:35:37;1013.71;;;6.97;37.12
46886;BME280;32622;48.202;11.326;2023-11-21T01:37:39;1013.60;;;7.44;36.49
46886;BME280;32622;48.202;11.326;2023-11-21T01:39:41;1013.59;;;7.47;36.88
46886;BME280;32622;48.202;11.326;2023-11-21T01:41:44;1013.63;;;7.33;37.16
46886;BME280;32622;48.202;11.326;2023-11-21T01:43:46;1013.65;;;7.38;37.24
46886;BME280;32622;48.202;11.326;2023-11-21T01:45:48;1013.72;;;7.17;36.82
46886;BME280;32622;48.202;11.326;2023-11-21T01:47:50;1013.56;;;7.70;36.68
46886;BME280;32622;48.202;11.326;2023-11-21T01:49:53;1013.86;;;6.78;36.87
46886;BME280;32622;48.202;11.326;2023-11-21T01:51:55;1014.01;;;6.30;38.57
46886;BME280;32622;48.202;11.326;2023-11-21T01:53:57;1014.02;;;6.32;39.22
46886;BME280;32622;48.202;11.326;2023-11-21T01:56:00;1014.23;;;5.52;40.05
46886;BME280;32622;48.202;11.326;2023-11-21T01:58:02;1014.15;;;6.02;40.09
46886;BME280;32622;48.202;11.326;2023-11-21T02:00:05;1014.33;;;5.37;39.48
46886;BME280;32622;48.202;11.326;2023-11-21T02:02:08;1014.03;;;6.58;39.45
46886;BME280;32622;48.202;11.326;2023-11-21T02:04:10;1014.20;;;6.05;39.52
46886;BME280;32622;48.202;11.326;2023-11-21T02:06:12;1014.14;;;6.23;39.63
46886;BME280;32622;48.202;11.326;2023-11-21T02:08:15;1014.10;;;6.26;39.43
46886;BME280;32622;48.202;11.326;2023-11-21T02:10:17;1014.21;;;5.79;40.23
46886;BME280;32622;48.202;11.326;2023-11-21T02:12:20;1014.02;;;6.45;39.90
46886;BME280;32622;48.202;11.326;2023-11-21T02:14:22;1014.15;;;5.75;40.69
46886;BME280;32622;48.202;11.326;2023-11-21T02:16:24;1014.27;;;5.24;41.21
46886;BME280;32622;48.202;11.326;2023-11-21T02:18:26;1014.06;;;5.93;40.52
46886;BME280;32622;48.202;11.326;2023-11-21T02:20:28;1014.06;;;6.00;40.16
46886;BME280;32622;48.202;11.326;2023-11-21T02:22:31;1014.03;;;6.09;40.47
46886;BME280;32622;48.202;11.326;2023-11-21T02:24:36;1014.04;;;5.92;39.72
46886;BME280;32622;48.202;11.326;2023-11-21T02:26:38;1014.18;;;5.34;41.01
46886;BME280;32622;48.202;11.326;2023-11-21T02:28:40;1014.07;;;5.66;40.29
46886;BME280;32622;48.202;11.326;2023-11-21T02:30:42;1013.97;;;5.80;40.53
46886;BME280;32622;48.202;11.326;2023-11-21T02:32:45;1013.75;;;6.48;39.87
46886;BME280;32622;48.202;11.326;2023-11-21T02:34:47;1013.79;;;6.25;39.42
46886;BME280;32622;48.202;11.326;2023-11-21T02:36:49;1013.75;;;6.43;39.07
46886;BME280;32622;48.202;11.326;2023-11-21T02:38:51;1013.68;;;6.52;38.77
46886;BME280;32622;48.202;11.326;2023-11-21T02:40:53;1013.80;;;5.95;39.35
46886;BME280;32622;48.202;11.326;2023-11-21T02:42:55;1013.71;;;6.40;38.69
46886;BME280;32622;48.202;11.326;2023-11-21T02:44:57;1013.82;;;6.14;38.58
46886;BME280;32622;48.202;11.326;2023-11-21T02:46:59;1013.73;;;6.43;39.15
46886;BME280;32622;48.202;11.326;2023-11-21T02:49:02;1013.62;;;6.72;38.77
46886;BME280;32622;48.202;11.326;2023-11-21T02:51:04;1013.55;;;7.02;38.35
46886;BME280;32622;48.202;11.326;2023-11-21T02:53:06;1013.52;;;7.07;38.20
46886;BME280;32622;48.202;11.326;2023-11-21T02:55:09;1013.61;;;6.60;37.96
46886;BME280;32622;48.202;11.326;2023-11-21T02:57:11;1013.46;;;7.12;37.87
46886;BME280;32622;48.202;11.326;2023-11-21T02:59:13;1013.59;;;6.72;38.05
46886;BME280;32622;48.202;11.326;2023-11-21T03:01:16;1013.38;;;7.48;37.89
46886;BME280;32622;48.202;11.326;2023-11-21T03:03:18;1013.56;;;6.69;37.66
46886;BME280;32622;48.202;11.326;2023-11-21T03:05:20;1013.42;;;7.40;37.51
46886;BME280;32622;48.202;11.326;2023-11-21T03:07:23;1013.40;;;7.51;37.19
46886;BME280;32622;48.202;11.326;2023-11-21T03:09:25;1013.44;;;7.38;37.70
46886;BME280;32622;48.202;11.326;2023-11-21T03:11:27;1013.50;;;7.12;37.67
46886;BME280;32622;48.202;11.326;2023-11-21T03:13:30;1013.53;;;7.12;37.66
46886;BME280;32622;48.202;11.326;2023-11-21T03:15:32;1013.47;;;7.47;37.31
46886;BME280;32622;48.202;11.326;2023-11-21T03:17:34;1013.49;;;7.36;37.13
46886;BME280;32622;48.202;11.326;2023-11-21T03:19:36;1013.54;;;7.20;37.29
46886;BME280;32622;48.202;11.326;2023-11-21T03:21:38;1013.51;;;7.21;36.91
46886;BME280;32622;48.202;11.326;2023-11-21T03:23:40;1013.44;;;7.51;36.76
46886;BME280;32622;48.202;11.326;2023-11-21T03:25:42;1013.48;;;7.26;36.99
46886;BME280;32622;48.202;11.326;2023-11-21T03:27:44;1013.38;;;7.55;37.03
46886;BME280;32622;48.202;11.326;2023-11-21T03:29:48;1013.45;;;7.18;36.87
46886;BME280;32622;48.202;11.326;2023-11-21T03:31:50;1013.39;;;7.54;36.99
46886;BME280;32622;48.202;11.326;2023-11-21T03:33:52;1013.52;;;7.20;36.96
46886;BME280;32622;48.202;11.326;2023-11-21T03:35:54;1013.64;;;6.79;37.48
46886;BME280;32622;48.202;11.326;2023-11-21T03:37:56;1013.52;;;7.37;37.27
46886;BME280;32622;48.202;11.326;2023-11-21T03:39:58;1013.65;;;6.78;37.18
46886;BME280;32622;48.202;11.326;2023-11-21T03:42:00;1013.54;;;7.44;36.62
46886;BME280;32622;48.202;11.326;2023-11-21T03:44:03;1013.51;;;7.56;36.48
46886;BME280;32622;48.202;11.326;2023-11-21T03:46:06;1013.48;;;7.56;37.16
46886;BME280;32622;48.202;11.326;2023-11-21T03:48:08;1013.54;;;7.30;37.03
46886;BME280;32622;48.202;11.326;2023-11-21T03:50:10;1013.50;;;7.54;37.22
46886;BME280;32622;48.202;11.326;2023-11-21T03:52:12;1013.66;;;6.84;37.13
46886;BME280;32622;48.202;11.326;2023-11-21T03:54:15;1013.43;;;7.75;36.58
46886;BME280;32622;48.202;11.326;2023-11-21T03:56:17;1013.47;;;7.50;36.57
46886;BME280;32622;48.202;11.326;2023-11-21T03:58:19;1013.62;;;6.61;37.34
46886;BME280;32622;48.202;11.326;2023-11-21T04:00:21;1013.59;;;6.82;36.91
46886;BME280;32622;48.202;11.326;2023-11-21T04:02:23;1013.50;;;7.25;37.37
46886;BME280;32622;48.202;11.326;2023-11-21T04:04:25;1013.50;;;7.36;37.16
46886;BME280;32622;48.202;11.326;2023-11-21T04:06:27;1013.56;;;7.14;37.48
46886;BME280;32622;48.202;11.326;2023-11-21T04:08:29;1013.77;;;6.19;38.27
46886;BME280;32622;48.202;11.326;2023-11-21T04:10:32;1013.89;;;5.74;39.35
46886;BME280;32622;48.202;11.326;2023-11-21T04:12:34;1013.60;;;7.00;37.87
46886;BME280;32622;48.202;11.326;2023-11-21T04:14:36;1013.65;;;6.95;37.59
46886;BME280;32622;48.202;11.326;2023-11-21T04:16:38;1013.70;;;6.66;37.79
46886;BME280;32622;48.202;11.326;2023-11-21T04:18:40;1013.70;;;6.69;37.87
46886;BME280;32622;48.202;11.326;2023-11-21T04:20:42;1013.80;;;6.29;38.28
46886;BME280;32622;48.202;11.326;2023-11-21T04:22:44;1013.58;;;7.15;37.84
46886;BME280;32622;48.202;11.326;2023-11-21T04:24:46;1013.94;;;5.86;38.51
46886;BME280;32622;48.202;11.326;2023-11-21T04:26:49;1013.99;;;5.71;39.56
46886;BME280;32622;48.202;11.326;2023-11-21T04:28:51;1013.93;;;5.95;39.06
46886;BME280;32622;48.202;11.326;2023-11-21T04:30:53;1013.91;;;6.12;38.58
46886;BME280;32622;48.202;11.326;2023-11-21T04:32:55;1013.90;;;6.10;38.56
46886;BME280;32622;48.202;11.326;2023-11-21T04:34:57;1013.76;;;6.79;38.29
46886;BME280;32622;48.202;11.326;2023-11-21T04:36:59;1013.97;;;5.88;39.31
46886;BME280;32622;48.202;11.326;2023-11-21T04:39:02;1013.95;;;6.01;39.65
46886;BME280;32622;48.202;11.326;2023-11-21T04:41:04;1013.93;;;6.00;39.70
46886;BME280;32622;48.202;11.326;2023-11-21T04:43:06;1013.89;;;6.13;39.77
46886;BME280;32622;48.202;11.326;2023-11-21T04:45:09;1014.01;;;5.62;40.36
46886;BME280;32622;48.202;11.326;2023-11-21T04:47:11;1013.73;;;6.58;39.42
46886;BME280;32622;48.202;11.326;2023-11-21T04:49:14;1013.79;;;6.29;39.35
46886;BME280;32622;48.202;11.326;2023-11-21T04:51:16;1013.85;;;5.90;39.21
46886;BME280;32622;48.202;11.326;2023-11-21T04:53:18;1013.89;;;5.70;39.94
46886;BME280;32622;48.202;11.326;2023-11-21T04:55:20;1013.71;;;6.32;39.21
46886;BME280;32622;48.202;11.326;2023-11-21T04:57:22;1013.75;;;6.20;39.11
46886;BME280;32622;48.202;11.326;2023-11-21T04:59:24;1013.60;;;6.78;38.49
46886;BME280;32622;48.202;11.326;2023-11-21T05:01:27;1013.88;;;5.71;38.98
46886;BME280;32622;48.202;11.326;2023-11-21T05:03:29;1013.82;;;6.07;39.00
46886;BME280;32622;48.202;11.326;2023-11-21T05:05:31;1013.76;;;6.36;38.67
46886;BME280;32622;48.202;11.326;2023-11-21T05:07:33;1013.71;;;6.52;38.19
46886;BME280;32622;48.202;11.326;2023-11-21T05:09:35;1013.78;;;6.15;38.99
46886;BME280;32622;48.202;11.326;2023-11-21T05:11:37;1014.02;;;5.25;40.12
46886;BME280;32622;48.202;11.326;2023-11-21T05:13:40;1014.06;;;5.12;40.38
46886;BME280;32622;48.202;11.326;2023-11-21T05:15:42;1014.01;;;5.27;39.78
46886;BME280;32622;48.202;11.326;2023-11-21T05:17:44;1014.12;;;4.97;41.08
46886;BME280;32622;48.202;11.326;2023-11-21T05:19:47;1014.23;;;4.63;41.08
46886;BME280;32622;48.202;11.326;2023-11-21T05:21:49;1014.12;;;5.19;40.32
46886;BME280;32622;48.202;11.326;2023-11-21T05:23:51;1014.12;;;5.41;39.63
46886;BME280;32622;48.202;11.326;2023-11-21T05:25:53;1014.19;;;5.20;39.91
46886;BME280;32622;48.202;11.326;2023-11-21T05:27:55;1014.12;;;5.51;39.51
46886;BME280;32622;48.202;11.326;2023-11-21T05:29:57;1014.08;;;5.78;39.17
46886;BME280;32622;48.202;11.326;2023-11-21T05:31:59;1014.15;;;5.51;39.44
46886;BME280;32622;48.202;11.326;2023-11-21T05:34:01;1014.10;;;5.68;38.98
46886;BME280;32622;48.202;11.326;2023-11-21T05:36:04;1014.05;;;5.87;38.84
46886;BME280;32622;48.202;11.326;2023-11-21T05:38:07;1014.19;;;5.27;38.92
46886;BME280;32622;48.202;11.326;2023-11-21T05:40:10;1014.09;;;5.73;38.19
46886;BME280;32622;48.202;11.326;2023-11-21T05:42:12;1014.05;;;6.03;38.72
46886;BME280;32622;48.202;11.326;2023-11-21T05:44:14;1014.14;;;5.55;38.46
46886;BME280;32622;48.202;11.326;2023-11-21T05:46:16;1014.07;;;6.08;38.58
46886;BME280;32622;48.202;11.326;2023-11-21T05:48:18;1014.03;;;6.21;38.53
46886;BME280;32622;48.202;11.326;2023-11-21T05:50:20;1014.14;;;5.57;38.59
46886;BME280;32622;48.202;11.326;2023-11-21T05:52:23;1013.89;;;6.54;37.71
46886;BME280;32622;48.202;11.326;2023-11-21T05:54:25;1014.01;;;6.02;37.85
46886;BME280;32622;48.202;11.326;2023-11-21T05:56:27;1014.00;;;6.14;37.63
46886;BME280;32622;48.202;11.326;2023-11-21T05:58:29;1014.08;;;5.76;37.93
46886;BME280;32622;48.202;11.326;2023-11-21T06:00:31;1014.09;;;5.97;38.55
46886;BME280;32622;48.202;11.326;2023-11-21T06:02:33;1014.33;;;5.13;38.64
46886;BME280;32622;48.202;11.326;2023-11-21T06:04:35;1014.31;;;5.55;39.16
46886;BME280;32622;48.202;11.326;2023-11-21T06:06:38;1014.31;;;5.62;39.25
46886;BME280;32622;48.202;11.326;2023-11-21T06:08:40;1014.15;;;6.34;38.24
46886;BME280;32622;48.202;11.326;2023-11-21T06:10:42;1014.24;;;5.97;37.98
46886;BME280;32622;48.202;11.326;2023-11-21T06:12:44;1014.21;;;6.14;37.64
46886;BME280;32622;48.202;11.326;2023-11-21T06:14:46;1014.22;;;6.16;37.36
46886;BME280;32622;48.202;11.326;2023-11-21T06:16:48;1014.42;;;5.69;38.69
46886;BME280;32622;48.202;11.326;2023-11-21T06:18:50;1014.52;;;5.40;39.18
46886;BME280;32622;48.202;11.326;2023-11-21T06:20:52;1014.50;;;5.56;39.17
46886;BME280;32622;48.202;11.326;2023-11-21T06:22:55;1014.48;;;5.76;38.53
46886;BME280;32622;48.202;11.326;2023-11-21T06:24:57;1014.36;;;6.38;38.06
46886;BME280;32622;48.202;11.326;2023-11-21T06:26:59;1014.45;;;6.19;38.11
46886;BME280;32622;48.202;11.326;2023-11-21T06:29:01;1014.47;;;6.18;37.93
46886;BME280;32622;48.202;11.326;2023-11-21T06:31:03;1014.49;;;6.12;37.47
46886;BME280;32622;48.202;11.326;2023-11-21T06:33:05;1014.49;;;6.15;37.43
46886;BME280;32622;48.202;11.326;2023-11-21T06:35:08;1014.36;;;6.51;37.18
46886;BME280;32622;48.202;11.326;2023-11-21T06:37:10;1014.65;;;5.34;37.81
46886;BME280;32622;48.202;11.326;2023-11-21T06:39:12;1014.51;;;6.06;37.61
46886;BME280;32622;48.202;11.326;2023-11-21T06:41:15;1014.63;;;5.55;38.32
46886;BME280;32622;48.202;11.326;2023-11-21T06:43:17;1014.42;;;6.36;37.53
46886;BME280;32622;48.202;11.326;2023-11-21T06:45:19;1014.48;;;6.08;37.25
46886;BME280;32622;48.202;11.326;2023-11-21T06:47:21;1014.46;;;6.22;36.96
46886;BME280;32622;48.202;11.326;2023-11-21T06:49:23;1014.49;;;6.25;36.93
46886;BME280;32622;48.202;11.326;2023-11-21T06:51:25;1014.46;;;6.52;36.91
46886;BME280;32622;48.202;11.326;2023-11-21T06:53:28;1014.56;;;6.16;36.97
46886;BME280;32622;48.202;11.326;2023-11-21T06:55:30;1014.75;;;5.60;37.41
46886;BME280;32622;48.202;11.326;2023-11-21T06:57:32;1014.72;;;5.88;37.17
46886;BME280;32622;48.202;11.326;2023-11-21T06:59:34;1014.64;;;6.14;37.39
46886;BME280;32622;48.202;11.326;2023-11-21T07:01:36;1014.61;;;6.31;37.30
46886;BME280;32622;48.202;11.326;2023-11-21T07:03:39;1014.62;;;6.42;37.68
46886;BME280;32622;48.202;11.326;2023-11-21T07:05:41;1014.90;;;5.32;37.98
46886;BME280;32622;48.202;11.326;2023-11-21T07:07:43;1014.68;;;6.56;37.11
46886;BME280;32622;48.202;11.326;2023-11-21T07:09:45;1014.76;;;6.30;36.72
46886;BME280;32622;48.202;11.326;2023-11-21T07:11:47;1014.79;;;6.25;37.05
46886;BME280;32622;48.202;11.326;2023-11-21T07:13:49;1014.75;;;6.36;36.88
46886;BME280;32622;48.202;11.326;2023-11-21T07:15:52;1014.82;;;6.13;37.08
46886;BME280;32622;48.202;11.326;2023-11-21T07:17:54;1014.72;;;6.57;36.35
46886;BME280;32622;48.202;11.326;2023-11-21T07:19:56;1014.78;;;6.33;36.70
46886;BME280;32622;48.202;11.326;2023-11-21T07:21:58;1014.70;;;6.70;36.66
46886;BME280;32622;48.202;11.326;2023-11-21T07:24:00;1014.79;;;6.35;36.60
46886;BME280;32622;48.202;11.326;2023-11-21T07:26:03;1014.85;;;6.13;36.67
46886;BME280;32622;48.202;11.326;2023-11-21T07:28:05;1014.65;;;7.01;36.28
46886;BME280;32622;48.202;11.326;2023-11-21T07:30:09;1014.76;;;6.66;35.86
46886;BME280;32622;48.202;11.326;2023-11-21T07:32:11;1014.75;;;6.87;36.59
46886;BME280;32622;48.202;11.326;2023-11-21T07:34:13;1014.78;;;6.59;36.46
46886;BME280;32622;48.202;11.326;2023-11-21T07:36:16;1014.82;;;6.52;36.32
46886;BME280;32622;48.202;11.326;2023-11-21T07:38:18;1014.86;;;6.42;36.42
46886;BME280;32622;48.202;11.326;2023-11-21T07:40:20;1014.91;;;6.31;36.54
46886;BME280;32622;48.202;11.326;2023-11-21T07:42:23;1014.79;;;6.72;36.17
46886;BME280;32622;48.202;11.326;2023-11-21T07:44:25;1014.83;;;6.65;36.42
46886;BME280;32622;48.202;11.326;2023-11-21T07:46:28;1015.12;;;5.71;37.16
46886;BME280;32622;48.202;11.326;2023-11-21T07:48:30;1015.01;;;6.34;36.61
46886;BME280;32622;48.202;11.326;2023-11-21T07:50:32;1014.94;;;6.59;36.61
46886;BME280;32622;48.202;11.326;2023-11-21T07:52:35;1014.86;;;6.93;36.17
46886;BME280;32622;48.202;11.326;2023-11-21T07:54:37;1014.79;;;7.13;35.97
46886;BME280;32622;48.202;11.326;2023-11-21T07:56:39;1014.94;;;6.59;36.52
46886;BME280;32622;48.202;11.326;2023-11-21T07:58:41;1014.81;;;7.04;36.55
46886;BME280;32622;48.202;11.326;2023-11-21T08:00:43;1014.96;;;6.30;36.51
46886;BME280;32622;48.202;11.326;2023-11-21T08:02:45;1014.75;;;6.88;36.24
46886;BME280;32622;48.202;11.326;2023-11-21T08:04:47;1014.74;;;7.00;36.31
46886;BME280;32622;48.202;11.326;2023-11-21T08:06:49;1014.81;;;6.79;36.36
46886;BME280;32622;48.202;11.326;2023-11-21T08:08:51;1014.80;;;6.92;36.28
46886;BME280;32622;48.202;11.326;2023-11-21T08:10:54;1014.72;;;7.21;36.09
46886;BME280;32622;48.202;11.326;2023-11-21T08:12:56;1014.82;;;6.75;36.77
46886;BME280;32622;48.202;11.326;2023-11-21T08:14:58;1014.95;;;6.34;37.65
46886;BME280;32622;48.202;11.326;2023-11-21T08:17:00;1015.04;;;5.96;37.56
46886;BME280;32622;48.202;11.326;2023-11-21T08:19:02;1014.82;;;6.84;37.46
46886;BME280;32622;48.202;11.326;2023-11-21T08:21:05;1014.81;;;6.88;37.00
46886;BME280;32622;48.202;11.326;2023-11-21T08:23:07;1014.91;;;6.68;37.20
46886;BME280;32622;48.202;11.326;2023-11-21T08:25:09;1014.84;;;7.00;36.83
46886;BME280;32622;48.202;11.326;2023-11-21T08:27:11;1014.84;;;6.93;36.31
46886;BME280;32622;48.202;11.326;2023-11-21T08:29:13;1015.02;;;6.39;37.29
46886;BME280;32622;48.202;11.326;2023-11-21T08:31:16;1014.94;;;6.81;37.29
46886;BME280;32622;48.202;11.326;2023-11-21T08:33:18;1015.18;;;5.70;38.16
46886;BME280;32622;48.202;11.326;2023-11-21T08:35:20;1015.10;;;6.11;37.98
46886;BME280;32622;48.202;11.326;2023-11-21T08:37:22;1015.07;;;6.29;37.50
46886;BME280;32622;48.202;11.326;2023-11-21T08:39:24;1015.00;;;6.54;37.58
46886;BME280;32622;48.202;11.326;2023-11-21T08:41:26;1015.05;;;6.28;37.80
46886;BME280;32622;48.202;11.326;2023-11-21T08:43:28;1015.09;;;6.31;38.33
46886;BME280;32622;48.202;11.326;2023-11-21T08:45:31;1014.80;;;7.30;37.56
46886;BME280;32622;48.202;11.326;2023-11-21T08:47:33;1015.00;;;6.54;37.91
46886;BME280;32622;48.202;11.326;2023-11-21T08:49:35;1014.87;;;7.13;37.78
46886;BME280;32622;48.202;11.326;2023-11-21T08:51:37;1014.79;;;7.46;37.70
46886;BME280;32622;48.202;11.326;2023-11-21T08:53:40;1014.94;;;6.96;37.47
46886;BME280;32622;48.202;11.326;2023-11-21T08:55:42;1014.87;;;7.29;37.14
46886;BME280;32622;48.202;11.326;2023-11-21T08:57:44;1014.94;;;7.11;37.36
46886;BME280;32622;48.202;11.326;2023-11-21T08:59:46;1014.96;;;7.02;37.63
46886;BME280;32622;48.202;11.326;2023-11-21T09:01:49;1014.77;;;7.76;37.13
46886;BME280;32622;48.202;11.326;2023-11-21T09:03:51;1014.82;;;7.57;36.80
46886;BME280;32622;48.202;11.326;2023-11-21T09:05:53;1014.88;;;7.46;37.00
46886;BME280;32622;48.202;11.326;2023-11-21T09:07:55;1014.81;;;7.81;36.66
46886;BME280;32622;48.202;11.326;2023-11-21T09:09:57;1014.82;;;7.84;36.43
46886;BME280;32622;48.202;11.326;2023-11-21T09:12:00;1014.98;;;7.51;37.81
46886;BME280;32622;48.202;11.326;2023-11-21T09:14:02;1015.13;;;6.89;37.78
46886;BME280;32622;48.202;11.326;2023-11-21T09:16:05;1015.08;;;7.12;37.95
46886;BME280;32622;48.202;11.326;2023-11-21T09:18:07;1015.02;;;7.28;37.48
46886;BME280;32622;48.202;11.326;2023-11-21T09:20:10;1015.23;;;6.67;38.35
46886;BME280;32622;48.202;11.326;2023-11-21T09:22:12;1015.25;;;6.59;38.49
46886;BME280;32622;48.202;11.326;2023-11-21T09:24:14;1015.12;;;7.08;38.02
46886;BME280;32622;48.202;11.326;2023-11-21T09:26:16;1015.00;;;7.64;37.56
46886;BME280;32622;48.202;11.326;2023-11-21T09:28:19;1015.13;;;7.27;37.76
46886;BME280;32622;48.202;11.326;2023-11-21T09:30:21;1015.12;;;7.10;37.62
46886;BME280;32622;48.202;11.326;2023-11-21T09:32:23;1015.00;;;7.68;37.25
46886;BME280;32622;48.202;11.326;2023-11-21T09:34:25;1015.02;;;7.71;37.10
46886;BME280;32622;48.202;11.326;2023-11-21T09:36:27;1015.18;;;7.30;37.40
46886;BME280;32622;48.202;11.326;2023-11-21T09:38:29;1015.04;;;7.82;37.02
46886;BME280;32622;48.202;11.326;2023-11-21T09:40:31;1015.13;;;7.76;36.30
46886;BME280;32622;48.202;11.326;2023-11-21T09:42:38;1015.02;;;8.31;36.11
46886;BME280;32622;48.202;11.326;2023-11-21T09:44:46;1015.14;;;8.06;36.06
46886;BME280;32622;48.202;11.326;2023-11-21T09:46:50;1015.07;;;8.28;36.15
46886;BME280;32622;48.202;11.326;2023-11-21T09:48:54;1014.98;;;8.61;35.82
46886;BME280;32622;48.202;11.326;2023-11-21T09:50:58;1014.98;;;8.45;35.81
46886;BME280;32622;48.202;11.326;2023-11-21T09:53:11;1015.14;;;7.80;36.74
46886;BME280;32622;48.202;11.326;2023-11-21T09:55:16;1015.10;;;7.71;36.28
46886;BME280;32622;48.202;11.326;2023-11-21T09:57:20;1015.06;;;7.95;36.26
46886;BME280;32622;48.202;11.326;2023-11-21T09:59:23;1015.11;;;7.85;36.48
46886;BME280;32622;48.202;11.326;2023-11-21T10:01:26;1015.00;;;8.32;36.06
46886;BME280;32622;48.202;11.326;2023-11-21T10:03:29;1015.06;;;8.11;35.76
46886;BME280;32622;48.202;11.326;2023-11-21T10:05:31;1015.08;;;7.89;36.23
46886;BME280;32622;48.202;11.326;2023-11-21T10:07:34;1015.00;;;8.33;35.84
46886;BME280;32622;48.202;11.326;2023-11-21T10:09:37;1015.05;;;7.82;36.57
46886;BME280;32622;48.202;11.326;2023-11-21T10:11:40;1014.99;;;8.19;36.56
46886;BME280;32622;48.202;11.326;2023-11-21T10:13:44;1014.90;;;8.42;36.22
46886;BME280;32622;48.202;11.326;2023-11-21T10:15:50;1015.02;;;7.93;36.30
46886;BME280;32622;48.202;11.326;2023-11-21T10:17:53;1014.94;;;8.34;35.90
46886;BME280;32622;48.202;11.326;2023-11-21T10:19:57;1015.03;;;8.14;36.26
46886;BME280;32622;48.202;11.326;2023-11-21T10:22:01;1015.05;;;8.06;36.68
46886;BME280;32622;48.202;11.326;2023-11-21T10:24:04;1015.32;;;7.02;38.32
46886;BME280;32622;48.202;11.326;2023-11-21T10:26:11;1015.16;;;7.59;37.25
46886;BME280;32622;48.202;11.326;2023-11-21T10:28:13;1015.12;;;7.67;36.97
46886;BME280;32622;48.202;11.326;2023-11-21T10:30:16;1015.03;;;8.09;37.27
46886;BME280;32622;48.202;11.326;2023-11-21T10:32:18;1015.11;;;7.69;37.51
46886;BME280;32622;48.202;11.326;2023-11-21T10:34:21;1015.21;;;7.28;38.26
46886;BME280;32622;48.202;11.326;2023-11-21T10:36:25;1015.11;;;7.52;38.24
46886;BME280;32622;48.202;11.326;2023-11-21T10:38:27;1015.05;;;7.81;37.80
46886;BME280;32622;48.202;11.326;2023-11-21T10:40:29;1015.12;;;7.64;37.62
46886;BME280;32622;48.202;11.326;2023-11-21T10:42:32;1014.99;;;8.32;37.46
46886;BME280;32622;48.202;11.326;2023-11-21T10:44:34;1015.11;;;8.08;37.66
46886;BME280;32622;48.202;11.326;2023-11-21T10:46:36;1015.26;;;7.59;38.24
46886;BME280;32622;48.202;11.326;2023-11-21T10:48:41;1015.07;;;8.33;37.31
46886;BME280;32622;48.202;11.326;2023-11-21T10:50:45;1015.13;;;8.00;36.94
46886;BME280;32622;48.202;11.326;2023-11-21T10:52:47;1015.11;;;7.92;36.71
46886;BME280;32622;48.202;11.326;2023-11-21T10:54:49;1015.04;;;8.05;37.00
46886;BME280;32622;48.202;11.326;2023-11-21T10:56:56;1014.82;;;8.88;36.52